Time;durP1;ratioP1;P1;durP2;ratioP2;P2;SDS_P1;SDS_P2;PMS_P1;PMS_P2;Temp;Humidity;BMP_temperature;BMP_pressure;BME280_temperature;BME280_humidity;BME280_pressure;Samples;Min_cycle;Max_cycle;Signal;HPM_P1;HPM_P2
2023/04/07 00:01:02;;;;;;;4.32;2.72;;;21.40;65.20;;;;;;5022169;28;20542;-61
2023/04/07 00:03:28;;;;;;;4.80;2.55;;;21.40;65.20;;;;;;5022173;28;20202;-61
2023/04/07 00:05:57;;;;;;;4.38;2.65;;;21.30;65.20;;;;;;5022749;28;20608;-61
2023/04/07 00:08:24;;;;;;;3.35;1.98;;;21.40;65.30;;;;;;5020360;28;20196;-61
2023/04/07 00:10:52;;;;;;;2.97;2.42;;;21.40;65.30;;;;;;5020211;28;20232;-61
2023/04/07 00:13:19;;;;;;;3.42;2.20;;;21.30;65.90;;;;;;5022136;28;20262;-60
2023/04/07 00:15:45;;;;;;;6.95;3.40;;;21.40;65.20;;;;;;5020581;28;20200;-59
2023/04/07 00:18:12;;;;;;;3.33;2.83;;;21.30;65.10;;;;;;5023597;28;20204;-59
2023/04/07 00:20:39;;;;;;;6.20;2.45;;;21.30;65.20;;;;;;5023109;28;20743;-59
2023/04/07 00:23:05;;;;;;;5.28;4.13;;;21.30;65.20;;;;;;5015407;28;20277;-59
2023/04/07 00:25:32;;;;;;;3.15;2.35;;;21.30;65.20;;;;;;5019285;28;20200;-59
2023/04/07 00:28:00;;;;;;;3.28;2.45;;;21.30;65.20;;;;;;5015743;28;20490;-59
2023/04/07 00:30:27;;;;;;;6.10;3.33;;;21.30;65.20;;;;;;5021406;28;20609;-60
2023/04/07 00:32:55;;;;;;;3.38;2.35;;;21.30;65.30;;;;;;5027463;28;20673;-60
2023/04/07 00:35:22;;;;;;;2.55;2.35;;;21.30;65.30;;;;;;5024143;28;20204;-60
2023/04/07 00:37:49;;;;;;;2.80;2.00;;;21.30;65.30;;;;;;5016849;28;20250;-60
2023/04/07 00:40:16;;;;;;;6.05;2.85;;;21.30;65.30;;;;;;5014308;28;20227;-59
2023/04/07 00:42:43;;;;;;;3.40;2.20;;;21.20;65.20;;;;;;5016103;28;20286;-59
2023/04/07 00:45:12;;;;;;;4.00;2.63;;;21.20;65.20;;;;;;5009055;28;20200;-59
2023/04/07 00:47:39;;;;;;;5.57;2.90;;;21.20;65.10;;;;;;5024600;28;20230;-59
2023/04/07 00:50:06;;;;;;;4.55;3.20;;;21.20;65.20;;;;;;5025204;28;20207;-59
2023/04/07 00:52:33;;;;;;;3.58;2.35;;;21.20;65.20;;;;;;5020072;28;20204;-60
2023/04/07 00:55:00;;;;;;;2.72;2.25;;;21.20;65.20;;;;;;5026209;28;20200;-60
2023/04/07 00:57:27;;;;;;;4.28;2.63;;;21.20;65.20;;;;;;5024687;28;20238;-59
2023/04/07 00:59:55;;;;;;;3.67;2.47;;;21.20;65.20;;;;;;5023982;28;20224;-62
2023/04/07 01:02:29;;;;;;;3.88;2.60;;;21.10;65.10;;;;;;5013330;28;20196;-60
2023/04/07 01:05:01;;;;;;;5.88;3.15;;;21.10;65.10;;;;;;5022854;28;20192;-60
2023/04/07 01:07:35;;;;;;;4.22;2.55;;;21.10;65.20;;;;;;5016570;28;20196;-60
2023/04/07 01:10:05;;;;;;;3.85;2.92;;;21.10;65.10;;;;;;5015128;28;20607;-62
2023/04/07 01:12:37;;;;;;;2.97;2.15;;;21.10;65.10;;;;;;5017791;28;20577;-61
2023/04/07 01:15:09;;;;;;;3.55;1.90;;;21.10;65.90;;;;;;5013464;28;20197;-59
2023/04/07 01:17:39;;;;;;;2.95;1.90;;;21.10;65.10;;;;;;5018052;28;20204;-61
2023/04/07 01:20:10;;;;;;;6.35;3.20;;;21.10;65.10;;;;;;5018742;28;20320;-62
2023/04/07 01:22:41;;;;;;;3.47;2.00;;;21.10;65.10;;;;;;5017028;28;20220;-60
2023/04/07 01:25:29;;;;;;;3.38;2.10;;;21.10;65.20;;;;;;5009370;28;20208;-62
2023/04/07 01:28:10;;;;;;;4.28;2.25;;;21.10;65.10;;;;;;5017694;28;20688;-62
2023/04/07 01:30:40;;;;;;;3.33;2.05;;;21.10;65.10;;;;;;5019943;28;20200;-62
2023/04/07 01:33:08;;;;;;;3.70;2.50;;;21.00;65.00;;;;;;5012495;28;20197;-61
2023/04/07 01:35:36;;;;;;;3.97;2.55;;;21.00;65.00;;;;;;5015963;28;20726;-61
2023/04/07 01:38:04;;;;;;;2.88;2.22;;;21.10;65.20;;;;;;5019353;28;20730;-61
2023/04/07 01:40:33;;;;;;;3.15;2.35;;;21.10;65.20;;;;;;5013630;28;20221;-61
2023/04/07 01:43:01;;;;;;;2.88;2.15;;;21.00;65.00;;;;;;5017666;28;20215;-60
2023/04/07 01:45:30;;;;;;;3.42;2.38;;;21.00;65.10;;;;;;5026806;28;20607;-61
2023/04/07 01:47:59;;;;;;;4.05;2.58;;;21.10;65.20;;;;;;5023657;28;20255;-61
2023/04/07 01:50:28;;;;;;;3.58;2.08;;;21.00;65.00;;;;;;5016469;28;20208;-65
2023/04/07 01:52:57;;;;;;;4.63;2.17;;;21.00;65.80;;;;;;5024621;28;20188;-59
2023/04/07 01:58:38;;;;;;;2.78;2.42;;;21.00;65.00;;;;;;4981890;28;20210;-59
2023/04/07 02:01:04;;;;;;;2.90;2.25;;;21.00;65.00;;;;;;4988283;28;20641;-59
2023/04/07 02:03:42;;;;;;;2.30;1.90;;;21.00;65.00;;;;;;5013294;28;20252;-61
2023/04/07 02:06:11;;;;;;;3.20;1.90;;;21.00;65.00;;;;;;5019807;28;20213;-61
2023/04/07 02:08:42;;;;;;;4.30;2.95;;;20.90;65.00;;;;;;5024839;28;20199;-61
2023/04/07 02:11:11;;;;;;;3.70;2.30;;;20.90;65.00;;;;;;5026898;28;20200;-59
2023/04/07 02:13:38;;;;;;;2.88;1.90;;;21.00;65.90;;;;;;5018818;28;20196;-61
2023/04/07 02:16:07;;;;;;;2.25;2.05;;;21.00;65.00;;;;;;5022772;28;20215;-62
2023/04/07 02:18:36;;;;;;;2.88;2.03;;;21.00;65.10;;;;;;5030244;28;20200;-59
2023/04/07 02:21:05;;;;;;;3.88;2.92;;;21.00;65.90;;;;;;5029545;28;20328;-62
2023/04/07 02:23:35;;;;;;;4.47;2.35;;;21.00;65.10;;;;;;5023345;28;20311;-61
2023/04/07 02:26:01;;;;;;;2.95;2.20;;;21.00;65.00;;;;;;5026295;28;20607;-59
2023/04/07 02:28:28;;;;;;;3.17;1.83;;;20.90;64.90;;;;;;5018565;28;20500;-59
2023/04/07 02:30:55;;;;;;;2.97;2.00;;;20.90;65.00;;;;;;5025408;28;20201;-62
2023/04/07 02:33:21;;;;;;;2.80;2.05;;;20.90;65.00;;;;;;5026521;28;20652;-59
2023/04/07 02:35:49;;;;;;;3.65;1.77;;;20.90;64.90;;;;;;5027387;28;20196;-60
2023/04/07 02:38:16;;;;;;;4.38;2.40;;;20.90;64.90;;;;;;5015960;28;20296;-59
2023/04/07 02:40:43;;;;;;;3.50;2.20;;;20.90;64.90;;;;;;5024787;28;20231;-60
2023/04/07 02:43:10;;;;;;;3.67;2.10;;;20.90;64.90;;;;;;5009938;28;20205;-59
2023/04/07 02:45:36;;;;;;;3.10;2.25;;;20.90;64.90;;;;;;5021128;28;20303;-59
2023/04/07 02:48:03;;;;;;;2.65;1.77;;;20.90;65.00;;;;;;5022270;28;20204;-59
2023/04/07 02:50:30;;;;;;;3.08;1.98;;;20.90;64.90;;;;;;5026757;28;20596;-59
2023/04/07 02:52:59;;;;;;;2.78;1.95;;;20.90;64.90;;;;;;5014382;28;20196;-60
2023/04/07 02:55:26;;;;;;;4.22;2.15;;;20.90;64.90;;;;;;5027418;28;20282;-60
2023/04/07 02:57:53;;;;;;;4.53;2.53;;;20.90;64.90;;;;;;5020304;28;20196;-60
2023/04/07 03:00:19;;;;;;;2.65;2.17;;;20.90;64.90;;;;;;5025063;28;20221;-60
2023/04/07 03:02:46;;;;;;;3.85;1.95;;;20.80;64.90;;;;;;5021926;28;20193;-60
2023/04/07 03:05:13;;;;;;;3.40;2.22;;;20.80;64.90;;;;;;5019127;28;20200;-60
2023/04/07 03:07:40;;;;;;;2.75;1.90;;;20.80;64.80;;;;;;5013125;28;20197;-59
2023/04/07 03:10:09;;;;;;;2.47;1.92;;;20.80;64.90;;;;;;5018087;28;20208;-61
2023/04/07 03:12:36;;;;;;;2.58;1.83;;;20.80;64.80;;;;;;5012914;28;20196;-61
2023/04/07 03:15:05;;;;;;;2.67;1.77;;;20.80;64.90;;;;;;5015906;28;20239;-60
2023/04/07 03:17:31;;;;;;;3.63;1.95;;;20.80;64.90;;;;;;5021251;28;20200;-59
2023/04/07 03:19:58;;;;;;;2.58;2.03;;;20.80;65.00;;;;;;5024920;28;20219;-60
2023/04/07 03:22:25;;;;;;;2.95;1.88;;;20.80;64.90;;;;;;5013288;28;20220;-60
2023/04/07 03:24:53;;;;;;;1.98;1.55;;;20.80;65.00;;;;;;5016854;28;20660;-59
2023/04/07 03:27:21;;;;;;;2.63;1.65;;;20.80;64.90;;;;;;5014824;28;20192;-60
2023/04/07 03:29:50;;;;;;;3.40;1.88;;;20.80;64.90;;;;;;5025379;28;20196;-60
2023/04/07 03:32:18;;;;;;;3.22;2.20;;;20.80;64.90;;;;;;5014086;28;20192;-60
2023/04/07 03:34:45;;;;;;;3.38;1.90;;;20.80;64.90;;;;;;5013095;28;20251;-60
2023/04/07 03:37:12;;;;;;;3.60;1.88;;;20.80;64.90;;;;;;5017348;28;20652;-59
2023/04/07 03:39:39;;;;;;;2.72;1.50;;;20.80;64.90;;;;;;5019614;28;20197;-60
2023/04/07 03:42:06;;;;;;;4.15;1.83;;;20.80;64.90;;;;;;5015193;28;20291;-60
2023/04/07 03:44:34;;;;;;;1.95;1.60;;;20.70;64.80;;;;;;5027576;28;20254;-60
2023/04/07 03:47:01;;;;;;;2.67;1.67;;;20.80;65.70;;;;;;5018470;28;20656;-60
2023/04/07 03:49:28;;;;;;;2.60;1.50;;;20.80;65.00;;;;;;5023509;28;20224;-59
2023/04/07 03:51:54;;;;;;;2.08;1.70;;;20.80;64.90;;;;;;5011400;28;20253;-60
2023/04/07 03:54:21;;;;;;;2.45;2.00;;;20.80;64.90;;;;;;5021083;28;20203;-60
2023/04/07 03:56:48;;;;;;;2.88;1.95;;;20.70;64.80;;;;;;5022950;28;20207;-59
2023/04/07 03:59:15;;;;;;;2.05;1.30;;;20.80;64.90;;;;;;5023155;28;20250;-59
2023/04/07 04:01:43;;;;;;;1.90;1.50;;;20.80;64.90;;;;;;5026364;28;20220;-59
2023/04/07 04:04:10;;;;;;;2.75;1.80;;;20.70;64.80;;;;;;5015286;28;20604;-59
2023/04/07 04:06:37;;;;;;;1.60;1.50;;;20.70;64.80;;;;;;5023835;28;20192;-59
2023/04/07 04:09:04;;;;;;;2.50;1.77;;;20.70;64.80;;;;;;5014850;28;20555;-60
2023/04/07 04:11:31;;;;;;;2.50;1.92;;;20.70;64.80;;;;;;5022304;28;20201;-60
2023/04/07 04:13:58;;;;;;;2.28;1.50;;;20.70;64.80;;;;;;5019491;28;20568;-59
2023/04/07 04:16:25;;;;;;;3.03;1.85;;;20.70;64.80;;;;;;5017904;28;20195;-59
2023/04/07 04:18:53;;;;;;;2.20;1.45;;;20.70;65.50;;;;;;5023405;28;20600;-59
2023/04/07 04:21:20;;;;;;;2.10;1.70;;;20.70;64.80;;;;;;5024041;28;20216;-59
2023/04/07 04:23:46;;;;;;;1.60;1.40;;;20.70;64.80;;;;;;5021311;28;20235;-61
2023/04/07 04:26:13;;;;;;;2.78;1.50;;;20.70;64.80;;;;;;5019012;28;20209;-61
2023/04/07 04:28:41;;;;;;;2.17;1.80;;;20.70;64.80;;;;;;5017286;28;20201;-62
2023/04/07 04:31:10;;;;;;;2.50;1.70;;;20.70;64.80;;;;;;5022036;28;20195;-61
2023/04/07 04:33:37;;;;;;;1.98;1.50;;;20.70;64.80;;;;;;5021493;28;20204;-62
2023/04/07 04:36:06;;;;;;;1.92;1.60;;;20.70;64.80;;;;;;5022763;28;20270;-61
2023/04/07 04:38:32;;;;;;;2.70;2.30;;;20.60;64.70;;;;;;5009286;28;20300;-59
2023/04/07 04:40:59;;;;;;;1.90;1.80;;;20.70;64.80;;;;;;5016883;28;20305;-61
2023/04/07 04:43:31;;;;;;;1.70;1.40;;;20.60;64.60;;;;;;5010072;28;20200;-61
2023/04/07 04:45:59;;;;;;;2.58;1.88;;;20.60;64.60;;;;;;5014216;28;21749;-61
2023/04/07 04:48:26;;;;;;;2.10;1.55;;;20.70;64.80;;;;;;5024187;28;20199;-61
2023/04/07 04:50:52;;;;;;;2.25;1.88;;;20.60;64.70;;;;;;5025255;28;20238;-61
2023/04/07 04:53:21;;;;;;;2.72;1.75;;;20.70;64.80;;;;;;5019711;28;20263;-61
2023/04/07 04:55:52;;;;;;;1.50;1.20;;;20.60;64.70;;;;;;5022354;28;20292;-61
2023/04/07 04:58:18;;;;;;;1.98;1.70;;;20.70;64.90;;;;;;5010216;28;20224;-61
2023/04/07 05:00:45;;;;;;;2.22;1.40;;;20.60;64.70;;;;;;5021198;28;20278;-61
2023/04/07 05:03:12;;;;;;;2.30;1.80;;;20.70;65.70;;;;;;5022529;28;20204;-61
2023/04/07 05:05:38;;;;;;;2.00;1.60;;;20.70;65.00;;;;;;5016481;28;20656;-61
2023/04/07 05:08:06;;;;;;;3.55;2.05;;;20.70;65.00;;;;;;5010993;28;20604;-60
2023/04/07 05:10:38;;;;;;;1.85;1.45;;;20.60;64.80;;;;;;5016622;28;20737;-61
2023/04/07 05:13:05;;;;;;;2.20;1.60;;;20.70;65.00;;;;;;5025825;28;20280;-61
2023/04/07 05:15:31;;;;;;;2.60;1.40;;;20.60;64.80;;;;;;5023484;28;20192;-62
2023/04/07 05:17:58;;;;;;;1.90;1.63;;;20.60;64.90;;;;;;5015444;28;20664;-61
2023/04/07 05:20:25;;;;;;;2.45;1.60;;;20.60;65.00;;;;;;5024273;28;20628;-61
2023/04/07 05:22:51;;;;;;;1.50;1.35;;;20.60;64.90;;;;;;5013658;28;20627;-61
2023/04/07 05:25:18;;;;;;;2.28;1.52;;;20.70;65.00;;;;;;5021071;28;20208;-61
2023/04/07 05:27:46;;;;;;;2.20;1.30;;;20.60;65.00;;;;;;5023640;28;20211;-61
2023/04/07 05:30:13;;;;;;;1.60;1.40;;;20.60;64.80;;;;;;5013757;28;20254;-61
2023/04/07 05:32:40;;;;;;;1.50;1.40;;;20.60;64.80;;;;;;5019508;28;20201;-61
2023/04/07 05:35:08;;;;;;;1.90;1.50;;;20.70;64.90;;;;;;5027016;28;20207;-61
2023/04/07 05:37:35;;;;;;;2.25;1.80;;;20.70;64.90;;;;;;5018882;28;20258;-61
2023/04/07 05:40:02;;;;;;;3.10;1.60;;;20.70;64.90;;;;;;5019777;28;20681;-61
2023/04/07 05:42:29;;;;;;;2.60;1.48;;;20.70;64.90;;;;;;5020253;28;20746;-62
2023/04/07 05:44:57;;;;;;;1.60;1.40;;;20.70;64.90;;;;;;5019803;28;20603;-61
2023/04/07 05:47:26;;;;;;;1.60;1.10;;;20.70;64.90;;;;;;5020573;28;20656;-61
2023/04/07 05:49:56;;;;;;;1.83;1.40;;;20.70;64.80;;;;;;5029489;28;20188;-61
2023/04/07 05:52:22;;;;;;;2.05;1.45;;;20.70;64.80;;;;;;5023624;28;21716;-61
2023/04/07 05:54:49;;;;;;;1.30;1.10;;;20.70;64.80;;;;;;5024094;28;20258;-61
2023/04/07 05:57:18;;;;;;;2.15;1.33;;;20.70;64.80;;;;;;5015532;28;20200;-61
2023/04/07 05:59:45;;;;;;;2.20;1.38;;;20.70;64.80;;;;;;5023357;28;20261;-60
2023/04/07 06:02:15;;;;;;;2.45;1.70;;;20.70;64.80;;;;;;5025139;28;20243;-61
2023/04/07 06:04:44;;;;;;;2.38;1.60;;;20.70;64.80;;;;;;5020550;28;20270;-62
2023/04/07 06:07:10;;;;;;;1.60;1.38;;;20.70;64.80;;;;;;5023096;28;20197;-61
2023/04/07 06:09:37;;;;;;;1.85;1.45;;;20.70;64.60;;;;;;5026204;28;20200;-60
2023/04/07 06:12:06;;;;;;;1.50;1.40;;;20.80;64.60;;;;;;5022717;28;20208;-61
2023/04/07 06:14:32;;;;;;;1.55;1.20;;;20.80;64.60;;;;;;5021222;28;20642;-61
2023/04/07 06:16:59;;;;;;;1.85;1.50;;;20.80;64.60;;;;;;5021728;28;20652;-61
2023/04/07 06:19:27;;;;;;;2.53;1.30;;;20.80;64.60;;;;;;5029932;28;20664;-61
2023/04/07 06:21:57;;;;;;;3.42;1.73;;;20.80;64.60;;;;;;5014363;28;20239;-61
2023/04/07 06:24:24;;;;;;;2.63;1.40;;;20.80;64.60;;;;;;5026003;28;20258;-62
2023/04/07 06:26:51;;;;;;;1.30;1.20;;;20.80;64.60;;;;;;5024432;28;20567;-60
2023/04/07 06:29:18;;;;;;;1.95;1.48;;;20.90;64.60;;;;;;5025017;28;20196;-61
2023/04/07 06:31:45;;;;;;;2.60;1.23;;;20.80;64.50;;;;;;5023219;28;20255;-61
2023/04/07 06:34:12;;;;;;;1.75;1.10;;;20.90;64.60;;;;;;5022703;28;20247;-61
2023/04/07 06:36:43;;;;;;;2.30;1.52;;;20.90;64.50;;;;;;5022734;28;20200;-61
2023/04/07 06:39:12;;;;;;;1.98;1.48;;;20.90;64.50;;;;;;5017892;28;20204;-61
2023/04/07 06:41:41;;;;;;;1.63;1.42;;;20.90;64.50;;;;;;5024704;28;20705;-61
2023/04/07 06:44:09;;;;;;;1.85;1.63;;;20.90;64.50;;;;;;5014154;28;20208;-61
2023/04/07 06:46:36;;;;;;;1.42;1.27;;;20.90;64.50;;;;;;5025525;28;20215;-62
2023/04/07 06:49:05;;;;;;;1.30;1.00;;;20.90;64.50;;;;;;5028018;28;20304;-62
2023/04/07 06:51:31;;;;;;;1.35;1.25;;;20.90;64.50;;;;;;5023139;28;20302;-61
2023/04/07 06:53:59;;;;;;;1.73;1.40;;;20.90;64.50;;;;;;5021925;28;20608;-61
2023/04/07 06:56:26;;;;;;;1.60;1.30;;;20.90;64.40;;;;;;5023611;28;20201;-61
2023/04/07 06:58:53;;;;;;;1.60;1.50;;;21.00;64.60;;;;;;5020840;28;20200;-61
2023/04/07 07:01:19;;;;;;;2.22;1.20;;;21.00;64.50;;;;;;5018486;28;20580;-61
2023/04/07 07:03:46;;;;;;;1.73;1.23;;;20.90;64.40;;;;;;5016063;28;20204;-61
2023/04/07 07:06:13;;;;;;;1.80;1.40;;;20.90;64.40;;;;;;5024044;28;20204;-61
2023/04/07 07:08:40;;;;;;;1.30;1.00;;;20.90;64.40;;;;;;5023833;28;20196;-61
2023/04/07 07:11:09;;;;;;;1.42;1.13;;;20.90;64.40;;;;;;5014274;28;20661;-61
2023/04/07 07:13:35;;;;;;;1.63;1.10;;;21.00;64.50;;;;;;5009879;28;20225;-61
2023/04/07 07:16:02;;;;;;;1.70;1.20;;;20.90;64.40;;;;;;5018904;28;20607;-61
2023/04/07 07:18:29;;;;;;;1.45;1.20;;;21.00;64.50;;;;;;5028449;28;20214;-60
2023/04/07 07:20:58;;;;;;;1.35;1.10;;;20.90;64.40;;;;;;5025474;28;20197;-61
2023/04/07 07:23:24;;;;;;;1.65;1.20;;;21.00;64.40;;;;;;5024279;28;20654;-61
2023/04/07 07:25:51;;;;;;;1.55;1.35;;;20.90;64.40;;;;;;5013684;28;20283;-60
2023/04/07 07:28:20;;;;;;;1.60;1.10;;;21.00;65.30;;;;;;5019152;28;20306;-62
2023/04/07 07:30:47;;;;;;;2.50;1.38;;;21.00;64.40;;;;;;5023694;28;20303;-61
2023/04/07 07:33:14;;;;;;;1.30;1.13;;;20.90;64.30;;;;;;5020390;28;20209;-60
2023/04/07 07:35:41;;;;;;;1.30;1.10;;;20.90;64.30;;;;;;5028549;28;20220;-61
2023/04/07 07:38:08;;;;;;;2.20;1.65;;;20.90;64.30;;;;;;5017518;28;20203;-61
2023/04/07 07:40:34;;;;;;;1.75;1.38;;;20.90;64.30;;;;;;5027026;28;20738;-61
2023/04/07 07:43:01;;;;;;;1.73;1.00;;;21.00;64.40;;;;;;5015283;28;20283;-61
2023/04/07 07:45:29;;;;;;;3.50;1.60;;;20.90;64.30;;;;;;5026159;28;20204;-61
2023/04/07 07:47:56;;;;;;;2.05;1.20;;;21.00;64.40;;;;;;5014031;28;20714;-61
2023/04/07 07:50:22;;;;;;;1.35;0.90;;;21.00;64.40;;;;;;5025137;28;20204;-61
2023/04/07 07:52:49;;;;;;;1.10;0.95;;;21.00;64.40;;;;;;5016470;28;21893;-61
2023/04/07 07:55:16;;;;;;;1.20;1.05;;;21.00;64.30;;;;;;5021471;28;20266;-61
2023/04/07 07:57:42;;;;;;;1.30;1.10;;;21.00;64.30;;;;;;5022038;28;20209;-61
2023/04/07 08:00:13;;;;;;;2.05;1.25;;;21.00;64.40;;;;;;5021779;28;20656;-61
2023/04/07 08:02:43;;;;;;;1.70;1.08;;;21.00;64.30;;;;;;5015609;28;20271;-61
2023/04/07 08:05:10;;;;;;;1.40;1.05;;;21.00;64.30;;;;;;5017162;28;20204;-60
2023/04/07 08:07:38;;;;;;;1.85;1.10;;;21.00;64.30;;;;;;5017917;28;20251;-61
2023/04/07 08:10:06;;;;;;;4.57;1.55;;;21.10;64.50;;;;;;5021825;28;20578;-63
2023/04/07 08:12:33;;;;;;;5.45;1.50;;;21.10;64.80;;;;;;5018678;28;20234;-55
2023/04/07 08:14:59;;;;;;;8.00;1.35;;;21.10;65.00;;;;;;5016129;28;20192;-59
2023/04/07 08:17:26;;;;;;;4.65;1.20;;;21.10;64.80;;;;;;5017748;28;20564;-53
2023/04/07 08:19:54;;;;;;;5.15;1.00;;;21.10;65.10;;;;;;5017283;28;20687;-57
2023/04/07 08:22:21;;;;;;;2.83;1.10;;;21.20;65.30;;;;;;5014762;28;20289;-54
2023/04/07 08:24:47;;;;;;;6.43;1.70;;;21.20;65.50;;;;;;5021640;28;20204;-59
2023/04/07 08:27:15;;;;;;;3.13;1.70;;;21.20;65.70;;;;;;5013977;28;20204;-60
2023/04/07 08:29:45;;;;;;;1.33;1.10;;;21.20;65.70;;;;;;5019726;28;20222;-60
2023/04/07 08:32:11;;;;;;;2.15;1.10;;;21.20;65.60;;;;;;5017667;28;20664;-61
2023/04/07 08:34:38;;;;;;;2.35;1.25;;;21.20;65.30;;;;;;5019656;28;20612;-60
2023/04/07 08:37:08;;;;;;;1.30;0.90;;;21.20;65.20;;;;;;5022689;28;20933;-60
2023/04/07 08:39:34;;;;;;;1.27;0.98;;;21.20;65.10;;;;;;5014386;28;20231;-60
2023/04/07 08:42:01;;;;;;;1.52;1.20;;;21.20;64.90;;;;;;5011082;28;20213;-60
2023/04/07 08:44:29;;;;;;;1.75;1.00;;;21.20;64.70;;;;;;5018343;28;20215;-60
2023/04/07 08:46:59;;;;;;;1.73;1.30;;;21.20;64.70;;;;;;5010553;28;21254;-59
2023/04/07 08:49:28;;;;;;;1.42;0.95;;;21.20;64.60;;;;;;5016161;28;20200;-60
2023/04/07 08:51:57;;;;;;;1.25;1.00;;;21.20;64.50;;;;;;5011794;28;20589;-60
2023/04/07 08:54:26;;;;;;;2.00;1.25;;;21.20;64.30;;;;;;5016768;28;20192;-59
2023/04/07 08:56:53;;;;;;;2.35;2.05;;;21.20;64.30;;;;;;5017469;28;20204;-60
2023/04/07 08:59:25;;;;;;;1.90;0.90;;;21.20;64.20;;;;;;5018063;28;20223;-60
2023/04/07 09:01:53;;;;;;;1.10;0.90;;;21.20;64.20;;;;;;5015083;28;20224;-59
2023/04/07 09:04:23;;;;;;;1.40;1.20;;;21.20;64.10;;;;;;5012956;28;20200;-60
2023/04/07 09:06:50;;;;;;;1.70;1.10;;;21.20;64.10;;;;;;5011345;28;20219;-59
2023/04/07 09:09:17;;;;;;;1.77;1.15;;;21.20;64.10;;;;;;5012063;28;20634;-60
2023/04/07 09:11:48;;;;;;;1.30;1.00;;;21.20;64.00;;;;;;5015548;28;20294;-60
2023/04/07 09:14:17;;;;;;;1.40;0.90;;;21.20;64.00;;;;;;5016706;28;20205;-59
2023/04/07 09:16:44;;;;;;;1.50;0.95;;;21.20;63.90;;;;;;5017960;28;20188;-59
2023/04/07 09:19:10;;;;;;;1.63;1.00;;;21.20;63.90;;;;;;5013822;28;20197;-60
2023/04/07 09:21:50;;;;;;;1.30;0.95;;;21.20;63.90;;;;;;5009562;28;20213;-60
2023/04/07 09:24:25;;;;;;;2.13;1.10;;;21.20;63.80;;;;;;5009631;28;20291;-60
2023/04/07 09:27:10;;;;;;;1.70;1.10;;;21.20;63.80;;;;;;5012465;28;20567;-60
2023/04/07 09:29:36;;;;;;;1.40;1.10;;;21.20;63.80;;;;;;5009705;28;20228;-59
2023/04/07 09:32:03;;;;;;;1.20;1.10;;;21.20;63.80;;;;;;5013659;28;20384;-59
2023/04/07 09:34:31;;;;;;;1.80;1.20;;;21.20;63.70;;;;;;5010383;28;20193;-60
2023/04/07 09:37:00;;;;;;;1.30;1.17;;;21.20;63.70;;;;;;5007889;28;20200;-59
2023/04/07 09:39:29;;;;;;;1.58;1.00;;;21.20;63.70;;;;;;5008966;28;20671;-60
2023/04/07 09:41:58;;;;;;;1.42;1.00;;;21.20;63.70;;;;;;5008295;28;20272;-60
2023/04/07 09:44:26;;;;;;;1.65;1.10;;;21.30;63.80;;;;;;5014282;28;20200;-59
2023/04/07 09:46:55;;;;;;;1.75;1.00;;;21.20;63.70;;;;;;5020076;28;20266;-60
2023/04/07 09:49:22;;;;;;;1.85;1.10;;;21.30;63.80;;;;;;5018109;28;20200;-59
2023/04/07 09:51:57;;;;;;;1.20;0.88;;;21.20;63.70;;;;;;5020888;28;20211;-60
2023/04/07 09:54:36;;;;;;;1.58;1.10;;;21.30;63.80;;;;;;5020275;28;20278;-60
2023/04/07 09:57:08;;;;;;;1.20;1.00;;;21.20;63.60;;;;;;5014369;28;20215;-60
2023/04/07 09:59:36;;;;;;;1.10;0.80;;;21.30;63.70;;;;;;5017471;28;20620;-59
2023/04/07 10:02:04;;;;;;;1.38;0.90;;;21.20;63.60;;;;;;5015817;28;20231;-59
2023/04/07 10:04:31;;;;;;;1.42;1.00;;;21.20;63.80;;;;;;5023103;28;20611;-60
2023/04/07 10:06:59;;;;;;;1.27;1.00;;;21.20;64.00;;;;;;5019457;28;20228;-60
2023/04/07 10:09:27;;;;;;;2.25;1.05;;;21.10;64.00;;;;;;5019961;28;20722;-59
2023/04/07 10:11:56;;;;;;;1.52;1.00;;;21.20;64.20;;;;;;5021610;28;20200;-63
2023/04/07 10:14:27;;;;;;;1.60;1.17;;;21.20;64.30;;;;;;5014648;28;20196;-63
2023/04/07 10:16:54;;;;;;;1.50;1.02;;;21.20;64.50;;;;;;5022828;28;20254;-62
2023/04/07 10:19:21;;;;;;;1.40;0.95;;;21.20;64.50;;;;;;5024165;28;20679;-63
2023/04/07 10:21:52;;;;;;;1.05;0.80;;;21.20;64.70;;;;;;5024223;28;20777;-63
2023/04/07 10:24:42;;;;;;;2.75;1.15;;;21.30;65.00;;;;;;5013256;28;20611;-64
2023/04/07 10:27:13;;;;;;;1.73;1.42;;;21.30;65.20;;;;;;5011208;28;20209;-61
2023/04/07 10:29:44;;;;;;;1.60;1.02;;;21.30;65.50;;;;;;5014853;28;20197;-78
2023/04/07 10:32:11;;;;;;;1.30;1.17;;;21.40;65.70;;;;;;5013037;28;20214;-62
2023/04/07 10:34:58;;;;;;;1.17;1.02;;;21.30;65.70;;;;;;5027477;28;20215;-51
2023/04/07 10:37:26;;;;;;;1.50;0.80;;;21.40;66.10;;;;;;5021782;28;20660;-58
2023/04/07 10:40:29;;;;;;;6.57;1.40;;;21.40;66.00;;;;;;5025037;28;20295;-53
2023/04/07 10:42:56;;;;;;;1.60;1.20;;;21.40;66.20;;;;;;5019640;28;20231;-48
2023/04/07 10:46:02;;;;;;;1.20;1.05;;;21.50;66.40;;;;;;5016461;28;20200;-60
2023/04/07 10:48:32;;;;;;;1.10;0.80;;;21.50;66.50;;;;;;5006733;28;20192;-54
2023/04/07 10:51:17;;;;;;;1.40;0.80;;;21.50;66.40;;;;;;5014258;28;20231;-55
2023/04/07 10:54:15;;;;;;;1.63;1.05;;;21.60;66.60;;;;;;5020664;28;20213;-50
2023/04/07 10:57:11;;;;;;;1.48;0.80;;;21.60;66.70;;;;;;5023145;28;20280;-52
2023/04/07 10:59:43;;;;;;;1.52;0.90;;;21.60;66.50;;;;;;5023301;28;20196;-50
2023/04/07 11:02:33;;;;;;;1.00;0.80;;;21.70;66.60;;;;;;5030830;28;20204;-53
2023/04/07 11:05:01;;;;;;;1.50;0.85;;;21.70;66.70;;;;;;5015609;28;20216;-61
2023/04/07 11:07:53;;;;;;;1.63;1.02;;;21.70;66.60;;;;;;5014963;28;20208;-58
2023/04/07 11:10:20;;;;;;;2.33;1.23;;;21.70;66.80;;;;;;5023391;28;20200;-58
2023/04/07 11:13:01;;;;;;;1.60;0.70;;;21.70;66.80;;;;;;5021030;28;20227;-58
2023/04/07 11:15:28;;;;;;;2.17;1.00;;;21.70;66.70;;;;;;5025152;28;20664;-53
2023/04/07 11:18:16;;;;;;;1.20;0.87;;;21.80;66.80;;;;;;5021622;28;20192;-55
2023/04/07 11:20:50;;;;;;;1.10;0.88;;;21.80;66.70;;;;;;5013564;28;20460;-51
2023/04/07 11:23:22;;;;;;;2.63;1.07;;;21.80;66.80;;;;;;5019738;28;20300;-51
2023/04/07 11:25:50;;;;;;;1.00;0.80;;;21.80;66.70;;;;;;5025904;28;20460;-48
2023/04/07 11:28:18;;;;;;;1.40;1.02;;;21.90;66.80;;;;;;5017402;28;20818;-60
2023/04/07 11:30:48;;;;;;;1.20;0.90;;;21.80;66.70;;;;;;5013593;28;20281;-51
2023/04/07 11:33:16;;;;;;;1.10;0.85;;;21.90;66.80;;;;;;5012582;28;20238;-59
2023/04/07 11:35:49;;;;;;;1.73;0.95;;;21.90;66.80;;;;;;5019904;28;20196;-63
2023/04/07 11:38:17;;;;;;;1.05;0.80;;;21.90;67.10;;;;;;5022903;28;20204;-60
2023/04/07 11:40:44;;;;;;;1.90;0.83;;;21.90;67.00;;;;;;5024765;28;20549;-58
2023/04/07 11:43:21;;;;;;;1.43;0.90;;;21.90;66.80;;;;;;5010851;28;20489;-56
2023/04/07 11:46:04;;;;;;;1.03;0.73;;;21.90;66.80;;;;;;5010124;28;20913;-56
2023/04/07 11:48:34;;;;;;;1.63;0.85;;;21.90;66.70;;;;;;5012587;28;20474;-56
2023/04/07 11:51:03;;;;;;;1.00;0.87;;;21.80;66.60;;;;;;5020046;28;20604;-54
2023/04/07 11:53:31;;;;;;;1.00;0.90;;;21.90;66.70;;;;;;5014900;28;20822;-55
2023/04/07 11:56:03;;;;;;;1.10;1.00;;;21.80;66.40;;;;;;5015007;28;20467;-58
2023/04/07 11:58:29;;;;;;;1.40;1.10;;;21.80;66.30;;;;;;5010382;28;20600;-54
2023/04/07 12:01:03;;;;;;;1.23;0.90;;;21.90;66.40;;;;;;5028953;28;20443;-61
2023/04/07 12:03:30;;;;;;;1.48;1.00;;;21.90;67.10;;;;;;5026050;28;20223;-60
2023/04/07 12:05:57;;;;;;;1.40;0.80;;;21.90;66.30;;;;;;5019332;28;20243;-61
2023/04/07 12:08:37;;;;;;;1.27;0.80;;;21.90;66.40;;;;;;5013956;28;20193;-59
2023/04/07 12:11:04;;;;;;;1.00;0.77;;;22.00;66.40;;;;;;5012176;28;20200;-62
2023/04/07 12:13:31;;;;;;;1.10;0.80;;;22.00;66.50;;;;;;5009185;28;20463;-55
2023/04/07 12:15:59;;;;;;;2.77;1.07;;;22.00;66.40;;;;;;5013661;28;20501;-53
2023/04/07 12:18:27;;;;;;;0.80;0.60;;;22.00;66.40;;;;;;5015889;28;20510;-55
2023/04/07 12:20:54;;;;;;;2.03;1.00;;;22.00;66.40;;;;;;5011145;28;20509;-53
2023/04/07 12:23:20;;;;;;;1.50;0.80;;;22.00;66.30;;;;;;5010398;28;20636;-55
2023/04/07 12:25:49;;;;;;;1.20;0.80;;;22.00;66.40;;;;;;5009502;28;20456;-52
2023/04/07 12:28:15;;;;;;;1.30;0.90;;;22.00;66.40;;;;;;5012270;28;20843;-51
2023/04/07 12:30:42;;;;;;;0.80;0.60;;;22.10;66.40;;;;;;5029952;28;20242;-56
2023/04/07 12:33:09;;;;;;;1.07;0.90;;;22.10;66.40;;;;;;5021947;28;20211;-50
2023/04/07 12:35:37;;;;;;;1.00;0.90;;;22.10;66.40;;;;;;5014625;28;20458;-49
2023/04/07 12:38:04;;;;;;;1.37;0.97;;;22.10;66.40;;;;;;5014256;28;20491;-52
2023/04/07 12:40:33;;;;;;;1.40;0.80;;;22.20;66.50;;;;;;5009537;28;20559;-55
2023/04/07 12:43:02;;;;;;;2.20;1.20;;;22.20;66.50;;;;;;5021130;28;20517;-52
2023/04/07 12:45:30;;;;;;;1.33;0.80;;;22.20;66.50;;;;;;5020584;28;20487;-53
2023/04/07 12:47:57;;;;;;;1.00;0.70;;;22.20;66.50;;;;;;5011293;28;20509;-54
2023/04/07 12:50:25;;;;;;;1.10;0.77;;;22.20;66.40;;;;;;5015623;28;20868;-50
2023/04/07 12:52:53;;;;;;;1.40;0.80;;;22.20;66.40;;;;;;5011060;28;20463;-50
2023/04/07 12:55:20;;;;;;;1.33;1.07;;;22.20;66.40;;;;;;5014840;28;20486;-50
2023/04/07 12:57:47;;;;;;;1.00;0.87;;;22.20;66.40;;;;;;5014459;28;20970;-60
2023/04/07 13:00:15;;;;;;;0.90;0.70;;;22.20;66.50;;;;;;5012731;28;20576;-52